Ashburn, VA

8:55 PM EDT on September 30, 2014 (GMT -0400)
Washington Dulles International | Change Station
CLOSE
Current Station
Airport
Location: Dulles Airport,
Elevation: 322 ft
Nearby Weather Stations

Elev 322 ft 38.93 °N, 77.45 °W | Updated 1 hour ago

Partly Cloudy
Partly Cloudy
62 °F
Feels Like 62 °F
N
0
Wind Variable Wind from North

Today
High -- | Low -- °F
--% Chance of Precip.
Yesterday
High -- | Low -- °F
Precip. -- in
7:04 AM 6:54 PM
Waxing Crescent, 42% visible
Pressure 29.90 in
Visibility 10.0 miles
Clouds Few 10000 ft
Dew Point 59 °F
Humidity 90%
Rainfall 0.00 in
Snow Depth Not available.
UV 0 out of 12
Pollen 3.30 out of 12
Ozone Good
PM2.5 Good
Flu Activity Not available.
METAR KIAD 302352Z 00000KT 10SM FEW100 17/15 A2990 RMK AO2 SLP123 T01670150 10228 20167 53007

More Conditions Fewer Conditions

Pressure 29.90 in
Visibility 10.0 miles
Clouds Few 10000 ft
Dew Point 59 °F
Humidity 90%
Rainfall 0.00 in
Snow Depth Not available.
UV 0 out of 12
Pollen 3.30 out of 12
Ozone Good
PM2.5 Good
Flu Activity Not available.
METAR KIAD 302352Z 00000KT 10SM FEW100 17/15 A2990 RMK AO2 SLP123 T01670150 10228 20167 53007

More Conditions Fewer Conditions

10-Day Weather Forecast

Almanac

Astronomy

Sep. 30, 2014 Rise Set
Actual Time 7:04 AM EDT 6:54 PM EDT
Civil Twilight 6:38 AM EDT 7:20 PM EDT
Nautical Twilight 6:07 AM EDT 7:51 PM EDT
Astronomical Twilight 5:35 AM EDT 8:22 PM EDT
Moon 1:08 PM EDT (9/30) 11:24 PM EDT (9/30)
Length of Visible Light 12h 42m
Length of Day
11h 49m
Tomorrow will be 2m 31s shorter.
Waxing Crescent, 42% of the Moon is Illuminated
Today
Waxing Crescent
Oct 1
First Quarter
Oct 8
Full
Oct 15
Last Quarter
Oct 23
New

Today's Extremes

State Highs State Lows

Community

WunderPhotos

Upload Photos

1,757,801 photos uploaded!

Nearby

Air Quality

  Air Quality AQ Index Pollutant
Yesterday Good
PM10
Yesterday Good
OZONE
Current Good
PM2.5
Current Good
OZONE
Tuesday Moderate
PM2.5
Wednesday Moderate
PM2.5
Thursday Moderate
PM2.5
Friday Good
PM2.5

Snow Depth

Station Depth Elevation
No new snow has been reported.

Earthquake Activity

City Distance Mag. Time & Date
No recent earthquake activity has been reported nearby.
Minimum magnitude displayed is 2.5.

Coastal Water Temperatures

Place Temperature
Washington, DC 71.1 °F
Baltimore, MD 75.0 °F
Solomons Island, MD 73.9 °F

Nearby Weather Stations